sensor_id;sensor_type;location;lat;lon;timestamp;temperature;humidity
20963;DHT22;10640;50.140;8.138;2022-07-26T00:00:13;18.80;99.90
20963;DHT22;10640;50.140;8.138;2022-07-26T00:02:41;18.80;99.90
20963;DHT22;10640;50.140;8.138;2022-07-26T00:05:10;18.80;99.90
20963;DHT22;10640;50.140;8.138;2022-07-26T00:07:37;18.80;99.90
20963;DHT22;10640;50.140;8.138;2022-07-26T00:10:05;18.70;99.90
20963;DHT22;10640;50.140;8.138;2022-07-26T00:12:32;18.50;99.90
20963;DHT22;10640;50.140;8.138;2022-07-26T00:14:59;18.60;99.90
20963;DHT22;10640;50.140;8.138;2022-07-26T00:17:26;18.50;99.90
20963;DHT22;10640;50.140;8.138;2022-07-26T00:19:53;18.40;99.90
20963;DHT22;10640;50.140;8.138;2022-07-26T00:22:21;18.10;99.90
20963;DHT22;10640;50.140;8.138;2022-07-26T00:25:02;17.90;99.90
20963;DHT22;10640;50.140;8.138;2022-07-26T00:27:30;17.60;99.90
20963;DHT22;10640;50.140;8.138;2022-07-26T00:29:57;17.70;99.90
20963;DHT22;10640;50.140;8.138;2022-07-26T00:32:24;17.70;99.90
20963;DHT22;10640;50.140;8.138;2022-07-26T00:34:51;17.40;99.90
20963;DHT22;10640;50.140;8.138;2022-07-26T00:37:18;17.60;99.90
20963;DHT22;10640;50.140;8.138;2022-07-26T00:39:47;17.80;99.90
20963;DHT22;10640;50.140;8.138;2022-07-26T00:42:14;18.00;99.90
20963;DHT22;10640;50.140;8.138;2022-07-26T00:44:43;17.90;99.90
20963;DHT22;10640;50.140;8.138;2022-07-26T00:47:10;17.70;99.90
20963;DHT22;10640;50.140;8.138;2022-07-26T00:49:37;17.50;99.90
20963;DHT22;10640;50.140;8.138;2022-07-26T00:52:05;17.70;99.90
20963;DHT22;10640;50.140;8.138;2022-07-26T00:54:32;17.70;99.90
20963;DHT22;10640;50.140;8.138;2022-07-26T00:57:01;17.90;99.90
20963;DHT22;10640;50.140;8.138;2022-07-26T00:59:28;17.90;99.90
20963;DHT22;10640;50.140;8.138;2022-07-26T01:01:56;17.90;99.90
20963;DHT22;10640;50.140;8.138;2022-07-26T01:04:23;17.70;99.90
20963;DHT22;10640;50.140;8.138;2022-07-26T01:06:50;17.80;99.90
20963;DHT22;10640;50.140;8.138;2022-07-26T01:09:18;17.70;99.90
20963;DHT22;10640;50.140;8.138;2022-07-26T01:11:45;17.80;99.90
20963;DHT22;10640;50.140;8.138;2022-07-26T01:14:13;17.70;99.90
20963;DHT22;10640;50.140;8.138;2022-07-26T01:16:41;17.60;99.90
20963;DHT22;10640;50.140;8.138;2022-07-26T01:19:08;17.40;99.90
20963;DHT22;10640;50.140;8.138;2022-07-26T01:21:36;17.40;99.90
20963;DHT22;10640;50.140;8.138;2022-07-26T01:24:04;17.70;99.90
20963;DHT22;10640;50.140;8.138;2022-07-26T01:26:32;17.70;99.90
20963;DHT22;10640;50.140;8.138;2022-07-26T01:28:59;17.70;99.90
20963;DHT22;10640;50.140;8.138;2022-07-26T01:31:26;17.60;99.90
20963;DHT22;10640;50.140;8.138;2022-07-26T01:33:53;17.60;99.90
20963;DHT22;10640;50.140;8.138;2022-07-26T01:36:20;17.50;99.90
20963;DHT22;10640;50.140;8.138;2022-07-26T01:38:49;17.50;99.90
20963;DHT22;10640;50.140;8.138;2022-07-26T01:41:16;17.70;99.90
20963;DHT22;10640;50.140;8.138;2022-07-26T01:43:42;17.70;99.90
20963;DHT22;10640;50.140;8.138;2022-07-26T01:46:10;17.80;99.90
20963;DHT22;10640;50.140;8.138;2022-07-26T01:48:38;17.80;99.90
20963;DHT22;10640;50.140;8.138;2022-07-26T01:51:05;17.90;99.90
20963;DHT22;10640;50.140;8.138;2022-07-26T01:53:32;18.00;99.90
20963;DHT22;10640;50.140;8.138;2022-07-26T01:56:01;17.90;99.90
20963;DHT22;10640;50.140;8.138;2022-07-26T01:58:28;17.90;99.90
20963;DHT22;10640;50.140;8.138;2022-07-26T02:00:55;17.50;99.90
20963;DHT22;10640;50.140;8.138;2022-07-26T02:03:22;17.80;99.90
20963;DHT22;10640;50.140;8.138;2022-07-26T02:05:49;17.90;99.90
20963;DHT22;10640;50.140;8.138;2022-07-26T02:08:16;17.80;99.90
20963;DHT22;10640;50.140;8.138;2022-07-26T02:10:43;17.80;99.90
20963;DHT22;10640;50.140;8.138;2022-07-26T02:13:32;18.00;99.90
20963;DHT22;10640;50.140;8.138;2022-07-26T02:16:00;17.80;99.90
20963;DHT22;10640;50.140;8.138;2022-07-26T02:18:28;17.50;99.90
20963;DHT22;10640;50.140;8.138;2022-07-26T02:20:56;17.30;99.90
20963;DHT22;10640;50.140;8.138;2022-07-26T02:23:24;17.20;99.90
20963;DHT22;10640;50.140;8.138;2022-07-26T02:25:52;17.10;99.90
20963;DHT22;10640;50.140;8.138;2022-07-26T02:28:19;17.10;99.90
20963;DHT22;10640;50.140;8.138;2022-07-26T02:30:48;17.30;99.90
20963;DHT22;10640;50.140;8.138;2022-07-26T02:33:16;17.40;99.90
20963;DHT22;10640;50.140;8.138;2022-07-26T02:35:44;17.30;99.90
20963;DHT22;10640;50.140;8.138;2022-07-26T02:38:13;17.30;99.90
20963;DHT22;10640;50.140;8.138;2022-07-26T02:40:40;17.10;99.90
20963;DHT22;10640;50.140;8.138;2022-07-26T02:43:08;17.00;99.90
20963;DHT22;10640;50.140;8.138;2022-07-26T02:45:35;17.10;99.90
20963;DHT22;10640;50.140;8.138;2022-07-26T02:48:04;16.90;99.90
20963;DHT22;10640;50.140;8.138;2022-07-26T02:50:32;16.80;99.90
20963;DHT22;10640;50.140;8.138;2022-07-26T02:52:59;16.70;99.90
20963;DHT22;10640;50.140;8.138;2022-07-26T02:55:26;16.40;99.90
20963;DHT22;10640;50.140;8.138;2022-07-26T02:57:53;16.40;99.90
20963;DHT22;10640;50.140;8.138;2022-07-26T03:00:22;16.40;99.90
20963;DHT22;10640;50.140;8.138;2022-07-26T03:02:50;16.40;99.90
20963;DHT22;10640;50.140;8.138;2022-07-26T03:05:19;16.10;99.90
20963;DHT22;10640;50.140;8.138;2022-07-26T03:07:46;16.00;99.90
20963;DHT22;10640;50.140;8.138;2022-07-26T03:10:13;15.90;99.90
20963;DHT22;10640;50.140;8.138;2022-07-26T03:12:40;15.80;99.90
20963;DHT22;10640;50.140;8.138;2022-07-26T03:15:08;15.80;99.90
20963;DHT22;10640;50.140;8.138;2022-07-26T03:17:35;15.60;99.90
20963;DHT22;10640;50.140;8.138;2022-07-26T03:20:04;15.60;99.90
20963;DHT22;10640;50.140;8.138;2022-07-26T03:22:33;15.60;99.90
20963;DHT22;10640;50.140;8.138;2022-07-26T03:25:00;15.70;99.90
20963;DHT22;10640;50.140;8.138;2022-07-26T03:27:27;15.80;99.90
20963;DHT22;10640;50.140;8.138;2022-07-26T03:29:54;15.90;99.90
20963;DHT22;10640;50.140;8.138;2022-07-26T03:32:21;15.90;99.90
20963;DHT22;10640;50.140;8.138;2022-07-26T03:34:48;16.00;99.90
20963;DHT22;10640;50.140;8.138;2022-07-26T03:37:15;15.90;99.90
20963;DHT22;10640;50.140;8.138;2022-07-26T03:39:44;15.80;99.90
20963;DHT22;10640;50.140;8.138;2022-07-26T03:42:11;15.60;99.90
20963;DHT22;10640;50.140;8.138;2022-07-26T03:44:37;15.70;99.90
20963;DHT22;10640;50.140;8.138;2022-07-26T03:47:04;15.70;99.90
20963;DHT22;10640;50.140;8.138;2022-07-26T03:49:31;15.70;99.90
20963;DHT22;10640;50.140;8.138;2022-07-26T03:51:58;15.80;99.90
20963;DHT22;10640;50.140;8.138;2022-07-26T03:54:26;16.00;99.90
20963;DHT22;10640;50.140;8.138;2022-07-26T03:56:54;15.80;99.90
20963;DHT22;10640;50.140;8.138;2022-07-26T03:59:20;15.80;99.90
20963;DHT22;10640;50.140;8.138;2022-07-26T04:01:54;15.70;99.90
20963;DHT22;10640;50.140;8.138;2022-07-26T04:04:21;15.50;99.90
20963;DHT22;10640;50.140;8.138;2022-07-26T04:06:48;15.30;99.90
20963;DHT22;10640;50.140;8.138;2022-07-26T04:09:15;15.00;99.90
20963;DHT22;10640;50.140;8.138;2022-07-26T04:11:42;15.10;99.90
20963;DHT22;10640;50.140;8.138;2022-07-26T04:14:11;15.10;99.90
20963;DHT22;10640;50.140;8.138;2022-07-26T04:16:38;15.20;99.90
20963;DHT22;10640;50.140;8.138;2022-07-26T04:19:05;15.50;99.90
20963;DHT22;10640;50.140;8.138;2022-07-26T04:21:32;15.30;99.90
20963;DHT22;10640;50.140;8.138;2022-07-26T04:23:59;15.30;99.90
20963;DHT22;10640;50.140;8.138;2022-07-26T04:26:26;15.30;99.90
20963;DHT22;10640;50.140;8.138;2022-07-26T04:28:54;15.50;99.90
20963;DHT22;10640;50.140;8.138;2022-07-26T04:31:23;15.60;99.90
20963;DHT22;10640;50.140;8.138;2022-07-26T04:33:50;15.70;99.90
20963;DHT22;10640;50.140;8.138;2022-07-26T04:36:18;15.60;99.90
20963;DHT22;10640;50.140;8.138;2022-07-26T04:38:45;15.30;99.90
20963;DHT22;10640;50.140;8.138;2022-07-26T04:41:12;15.00;99.90
20963;DHT22;10640;50.140;8.138;2022-07-26T04:43:39;15.40;99.90
20963;DHT22;10640;50.140;8.138;2022-07-26T04:46:07;15.50;99.90
20963;DHT22;10640;50.140;8.138;2022-07-26T04:48:36;15.60;99.90
20963;DHT22;10640;50.140;8.138;2022-07-26T04:51:03;15.80;99.90
20963;DHT22;10640;50.140;8.138;2022-07-26T04:53:30;16.00;99.90
20963;DHT22;10640;50.140;8.138;2022-07-26T04:55:57;16.30;99.90
20963;DHT22;10640;50.140;8.138;2022-07-26T04:58:24;16.50;99.90
20963;DHT22;10640;50.140;8.138;2022-07-26T05:00:51;16.30;99.90
20963;DHT22;10640;50.140;8.138;2022-07-26T05:03:18;16.40;99.90
20963;DHT22;10640;50.140;8.138;2022-07-26T05:05:48;16.40;99.90
20963;DHT22;10640;50.140;8.138;2022-07-26T05:08:14;16.50;99.90
20963;DHT22;10640;50.140;8.138;2022-07-26T05:10:42;16.50;99.90
20963;DHT22;10640;50.140;8.138;2022-07-26T05:13:09;16.80;99.90
20963;DHT22;10640;50.140;8.138;2022-07-26T05:15:36;17.20;99.90
20963;DHT22;10640;50.140;8.138;2022-07-26T05:18:04;17.30;99.90
20963;DHT22;10640;50.140;8.138;2022-07-26T05:20:31;17.70;99.90
20963;DHT22;10640;50.140;8.138;2022-07-26T05:23:00;18.10;99.90
20963;DHT22;10640;50.140;8.138;2022-07-26T05:25:27;18.00;99.90
20963;DHT22;10640;50.140;8.138;2022-07-26T05:27:54;18.20;99.90
20963;DHT22;10640;50.140;8.138;2022-07-26T05:30:21;18.10;99.90
20963;DHT22;10640;50.140;8.138;2022-07-26T05:32:48;18.30;99.90
20963;DHT22;10640;50.140;8.138;2022-07-26T05:35:15;18.50;99.90
20963;DHT22;10640;50.140;8.138;2022-07-26T05:37:42;18.60;99.90
20963;DHT22;10640;50.140;8.138;2022-07-26T05:40:11;18.50;99.90
20963;DHT22;10640;50.140;8.138;2022-07-26T05:42:38;18.50;99.90
20963;DHT22;10640;50.140;8.138;2022-07-26T05:45:07;19.10;99.90
20963;DHT22;10640;50.140;8.138;2022-07-26T05:47:34;19.40;99.90
20963;DHT22;10640;50.140;8.138;2022-07-26T05:50:01;19.30;99.90
20963;DHT22;10640;50.140;8.138;2022-07-26T05:52:28;19.30;99.90
20963;DHT22;10640;50.140;8.138;2022-07-26T05:54:55;19.50;99.90
20963;DHT22;10640;50.140;8.138;2022-07-26T05:57:24;19.80;99.90
20963;DHT22;10640;50.140;8.138;2022-07-26T05:59:51;20.10;1.00
20963;DHT22;10640;50.140;8.138;2022-07-26T06:02:18;20.30;1.00
20963;DHT22;10640;50.140;8.138;2022-07-26T06:04:50;19.80;1.00
20963;DHT22;10640;50.140;8.138;2022-07-26T06:07:23;19.80;1.00
20963;DHT22;10640;50.140;8.138;2022-07-26T06:09:50;20.10;1.00
20963;DHT22;10640;50.140;8.138;2022-07-26T06:12:17;20.10;1.00
20963;DHT22;10640;50.140;8.138;2022-07-26T06:14:45;20.10;1.00
20963;DHT22;10640;50.140;8.138;2022-07-26T06:17:12;19.70;1.00
20963;DHT22;10640;50.140;8.138;2022-07-26T06:19:40;19.90;1.00
20963;DHT22;10640;50.140;8.138;2022-07-26T06:22:07;19.90;1.00
20963;DHT22;10640;50.140;8.138;2022-07-26T06:24:39;19.50;1.00
20963;DHT22;10640;50.140;8.138;2022-07-26T06:27:07;20.20;1.00
20963;DHT22;10640;50.140;8.138;2022-07-26T06:29:34;20.50;1.00
20963;DHT22;10640;50.140;8.138;2022-07-26T06:32:02;20.60;1.00
20963;DHT22;10640;50.140;8.138;2022-07-26T06:34:29;20.30;1.00
20963;DHT22;10640;50.140;8.138;2022-07-26T06:36:57;20.50;99.90
20963;DHT22;10640;50.140;8.138;2022-07-26T06:39:24;20.70;1.00
20963;DHT22;10640;50.140;8.138;2022-07-26T06:41:51;20.70;1.00
20963;DHT22;10640;50.140;8.138;2022-07-26T06:44:18;21.10;99.90
20963;DHT22;10640;50.140;8.138;2022-07-26T06:46:44;21.20;1.00
20963;DHT22;10640;50.140;8.138;2022-07-26T06:49:14;21.20;1.00
20963;DHT22;10640;50.140;8.138;2022-07-26T06:51:41;21.20;1.00
20963;DHT22;10640;50.140;8.138;2022-07-26T06:54:08;21.00;1.00
20963;DHT22;10640;50.140;8.138;2022-07-26T06:56:35;21.70;1.00
20963;DHT22;10640;50.140;8.138;2022-07-26T06:59:02;21.30;99.90
20963;DHT22;10640;50.140;8.138;2022-07-26T07:01:29;21.10;1.00
20963;DHT22;10640;50.140;8.138;2022-07-26T07:03:56;22.10;80.00
20963;DHT22;10640;50.140;8.138;2022-07-26T07:06:27;22.30;99.90
20963;DHT22;10640;50.140;8.138;2022-07-26T07:08:57;22.00;99.90
20963;DHT22;10640;50.140;8.138;2022-07-26T07:11:24;22.30;99.90
20963;DHT22;10640;50.140;8.138;2022-07-26T07:13:51;22.80;17.00
20963;DHT22;10640;50.140;8.138;2022-07-26T07:16:18;22.10;1.00
20963;DHT22;10640;50.140;8.138;2022-07-26T07:18:45;22.80;1.00
20963;DHT22;10640;50.140;8.138;2022-07-26T07:21:12;22.80;99.90
20963;DHT22;10640;50.140;8.138;2022-07-26T07:23:40;23.20;1.00
20963;DHT22;10640;50.140;8.138;2022-07-26T07:26:07;23.40;44.70
20963;DHT22;10640;50.140;8.138;2022-07-26T07:28:34;23.80;1.00
20963;DHT22;10640;50.140;8.138;2022-07-26T07:31:03;23.20;1.00
20963;DHT22;10640;50.140;8.138;2022-07-26T07:33:30;23.80;99.90
20963;DHT22;10640;50.140;8.138;2022-07-26T07:35:56;23.90;99.90
20963;DHT22;10640;50.140;8.138;2022-07-26T07:38:23;24.10;99.90
20963;DHT22;10640;50.140;8.138;2022-07-26T07:40:52;24.10;18.60
20963;DHT22;10640;50.140;8.138;2022-07-26T07:43:19;23.90;66.70
20963;DHT22;10640;50.140;8.138;2022-07-26T07:45:46;24.10;1.00
20963;DHT22;10640;50.140;8.138;2022-07-26T07:48:13;24.00;1.00
20963;DHT22;10640;50.140;8.138;2022-07-26T07:50:40;24.30;1.00
20963;DHT22;10640;50.140;8.138;2022-07-26T07:53:07;24.90;1.00
20963;DHT22;10640;50.140;8.138;2022-07-26T07:55:34;24.20;1.00
20963;DHT22;10640;50.140;8.138;2022-07-26T07:58:02;23.80;1.00
20963;DHT22;10640;50.140;8.138;2022-07-26T08:00:29;24.40;1.00
20963;DHT22;10640;50.140;8.138;2022-07-26T08:02:56;24.10;1.00
20963;DHT22;10640;50.140;8.138;2022-07-26T08:05:23;22.30;99.90
20963;DHT22;10640;50.140;8.138;2022-07-26T08:07:50;23.30;1.00
20963;DHT22;10640;50.140;8.138;2022-07-26T08:10:17;24.30;1.00
20963;DHT22;10640;50.140;8.138;2022-07-26T08:12:44;24.10;1.00
20963;DHT22;10640;50.140;8.138;2022-07-26T08:15:12;22.00;99.90
20963;DHT22;10640;50.140;8.138;2022-07-26T08:17:39;22.40;99.90
20963;DHT22;10640;50.140;8.138;2022-07-26T08:20:07;23.30;1.00
20963;DHT22;10640;50.140;8.138;2022-07-26T08:22:34;24.30;1.00
20963;DHT22;10640;50.140;8.138;2022-07-26T08:25:01;24.70;99.90
20963;DHT22;10640;50.140;8.138;2022-07-26T08:27:28;25.10;99.90
20963;DHT22;10640;50.140;8.138;2022-07-26T08:29:55;23.40;99.90
20963;DHT22;10640;50.140;8.138;2022-07-26T08:32:23;24.50;99.90
20963;DHT22;10640;50.140;8.138;2022-07-26T08:34:50;23.40;99.90
20963;DHT22;10640;50.140;8.138;2022-07-26T08:37:17;24.30;99.90
20963;DHT22;10640;50.140;8.138;2022-07-26T08:39:44;23.90;99.90
20963;DHT22;10640;50.140;8.138;2022-07-26T08:42:13;24.80;99.90
20963;DHT22;10640;50.140;8.138;2022-07-26T08:44:41;24.30;99.90
20963;DHT22;10640;50.140;8.138;2022-07-26T08:47:10;25.30;99.90
20963;DHT22;10640;50.140;8.138;2022-07-26T08:49:39;25.00;99.90
20963;DHT22;10640;50.140;8.138;2022-07-26T08:52:07;25.30;99.90
20963;DHT22;10640;50.140;8.138;2022-07-26T08:54:34;24.10;99.90
20963;DHT22;10640;50.140;8.138;2022-07-26T08:57:02;24.30;99.90
20963;DHT22;10640;50.140;8.138;2022-07-26T08:59:28;23.50;1.00
20963;DHT22;10640;50.140;8.138;2022-07-26T09:01:57;22.50;1.00
20963;DHT22;10640;50.140;8.138;2022-07-26T09:04:25;24.10;99.90
20963;DHT22;10640;50.140;8.138;2022-07-26T09:06:56;25.20;99.90
20963;DHT22;10640;50.140;8.138;2022-07-26T09:09:23;25.70;96.00
20963;DHT22;10640;50.140;8.138;2022-07-26T09:11:50;25.50;64.80
20963;DHT22;10640;50.140;8.138;2022-07-26T09:14:17;26.90;13.60
20963;DHT22;10640;50.140;8.138;2022-07-26T09:16:55;25.20;1.00
20963;DHT22;10640;50.140;8.138;2022-07-26T09:19:23;23.90;96.00
20963;DHT22;10640;50.140;8.138;2022-07-26T09:21:50;23.00;99.90
20963;DHT22;10640;50.140;8.138;2022-07-26T09:24:30;23.60;99.90
20963;DHT22;10640;50.140;8.138;2022-07-26T09:26:59;23.10;99.90
20963;DHT22;10640;50.140;8.138;2022-07-26T09:29:26;23.20;99.90
20963;DHT22;10640;50.140;8.138;2022-07-26T09:32:09;23.50;99.90
20963;DHT22;10640;50.140;8.138;2022-07-26T09:34:38;24.60;99.90
20963;DHT22;10640;50.140;8.138;2022-07-26T09:37:05;24.90;99.90
20963;DHT22;10640;50.140;8.138;2022-07-26T09:39:52;25.20;99.90
20963;DHT22;10640;50.140;8.138;2022-07-26T09:42:19;25.90;54.10
20963;DHT22;10640;50.140;8.138;2022-07-26T09:44:47;26.80;1.00
20963;DHT22;10640;50.140;8.138;2022-07-26T09:47:14;25.40;61.20
20963;DHT22;10640;50.140;8.138;2022-07-26T09:49:41;26.00;11.00
20963;DHT22;10640;50.140;8.138;2022-07-26T09:52:14;27.00;1.00
20963;DHT22;10640;50.140;8.138;2022-07-26T09:54:47;28.10;1.00
20963;DHT22;10640;50.140;8.138;2022-07-26T09:57:16;26.00;1.00
20963;DHT22;10640;50.140;8.138;2022-07-26T09:59:44;24.20;98.90
20963;DHT22;10640;50.140;8.138;2022-07-26T10:02:12;24.30;99.90
20963;DHT22;10640;50.140;8.138;2022-07-26T10:04:40;24.70;99.90
20963;DHT22;10640;50.140;8.138;2022-07-26T10:07:08;25.80;2.40
20963;DHT22;10640;50.140;8.138;2022-07-26T10:09:41;26.40;1.00
20963;DHT22;10640;50.140;8.138;2022-07-26T10:12:12;28.20;1.00
20963;DHT22;10640;50.140;8.138;2022-07-26T10:14:42;27.10;1.00
20963;DHT22;10640;50.140;8.138;2022-07-26T10:17:38;27.30;1.00
20963;DHT22;10640;50.140;8.138;2022-07-26T10:20:07;25.90;1.00
20963;DHT22;10640;50.140;8.138;2022-07-26T10:22:41;25.30;1.00
20963;DHT22;10640;50.140;8.138;2022-07-26T10:28:25;25.40;1.00
20963;DHT22;10640;50.140;8.138;2022-07-26T10:33:40;27.60;1.00
20963;DHT22;10640;50.140;8.138;2022-07-26T10:36:21;25.70;1.00
20963;DHT22;10640;50.140;8.138;2022-07-26T10:38:57;25.00;1.00
20963;DHT22;10640;50.140;8.138;2022-07-26T10:41:32;24.70;4.70
20963;DHT22;10640;50.140;8.138;2022-07-26T10:44:22;24.70;33.60
20963;DHT22;10640;50.140;8.138;2022-07-26T10:47:01;25.20;6.50
20963;DHT22;10640;50.140;8.138;2022-07-26T10:49:33;26.40;1.00
20963;DHT22;10640;50.140;8.138;2022-07-26T10:52:11;26.00;1.00
20963;DHT22;10640;50.140;8.138;2022-07-26T10:55:07;25.30;3.80
20963;DHT22;10640;50.140;8.138;2022-07-26T10:57:36;24.20;99.90
20963;DHT22;10640;50.140;8.138;2022-07-26T11:00:09;24.50;99.90
20963;DHT22;10640;50.140;8.138;2022-07-26T11:02:36;24.20;99.90
20963;DHT22;10640;50.140;8.138;2022-07-26T11:05:04;23.80;99.90
20963;DHT22;10640;50.140;8.138;2022-07-26T11:07:51;22.80;1.00
20963;DHT22;10640;50.140;8.138;2022-07-26T11:10:24;22.70;1.00
20963;DHT22;10640;50.140;8.138;2022-07-26T11:12:58;22.80;1.00
20963;DHT22;10640;50.140;8.138;2022-07-26T11:15:27;23.70;1.00
20963;DHT22;10640;50.140;8.138;2022-07-26T11:18:08;23.80;99.90
20963;DHT22;10640;50.140;8.138;2022-07-26T11:20:36;23.80;99.90
20963;DHT22;10640;50.140;8.138;2022-07-26T11:23:03;23.80;1.00
20963;DHT22;10640;50.140;8.138;2022-07-26T11:25:30;24.50;99.90
20963;DHT22;10640;50.140;8.138;2022-07-26T11:28:03;25.90;99.90
20963;DHT22;10640;50.140;8.138;2022-07-26T11:30:32;25.30;99.90
20963;DHT22;10640;50.140;8.138;2022-07-26T11:32:59;25.50;99.90
20963;DHT22;10640;50.140;8.138;2022-07-26T11:35:26;25.60;91.40
20963;DHT22;10640;50.140;8.138;2022-07-26T11:37:54;25.20;44.30
20963;DHT22;10640;50.140;8.138;2022-07-26T11:40:46;26.70;18.10
20963;DHT22;10640;50.140;8.138;2022-07-26T11:43:13;25.90;1.00
20963;DHT22;10640;50.140;8.138;2022-07-26T11:45:41;25.30;17.00
20963;DHT22;10640;50.140;8.138;2022-07-26T11:48:08;24.50;99.90
20963;DHT22;10640;50.140;8.138;2022-07-26T11:50:35;24.20;99.90
20963;DHT22;10640;50.140;8.138;2022-07-26T11:53:19;24.00;99.90
20963;DHT22;10640;50.140;8.138;2022-07-26T11:55:46;23.30;1.00
20963;DHT22;10640;50.140;8.138;2022-07-26T11:58:13;24.00;1.00
20963;DHT22;10640;50.140;8.138;2022-07-26T12:00:41;24.00;99.90
20963;DHT22;10640;50.140;8.138;2022-07-26T12:03:08;24.00;1.00
20963;DHT22;10640;50.140;8.138;2022-07-26T12:05:35;24.00;99.90
20963;DHT22;10640;50.140;8.138;2022-07-26T12:08:04;24.00;99.90
20963;DHT22;10640;50.140;8.138;2022-07-26T12:10:32;24.10;99.90
20963;DHT22;10640;50.140;8.138;2022-07-26T12:13:07;24.20;99.90
20963;DHT22;10640;50.140;8.138;2022-07-26T12:15:49;24.90;99.90
20963;DHT22;10640;50.140;8.138;2022-07-26T12:18:24;25.50;99.90
20963;DHT22;10640;50.140;8.138;2022-07-26T12:21:01;26.00;14.20
20963;DHT22;10640;50.140;8.138;2022-07-26T12:23:40;26.00;51.00
20963;DHT22;10640;50.140;8.138;2022-07-26T12:29:12;26.00;46.50
20963;DHT22;10640;50.140;8.138;2022-07-26T12:32:04;27.70;1.00
20963;DHT22;10640;50.140;8.138;2022-07-26T12:34:32;25.60;43.00
20963;DHT22;10640;50.140;8.138;2022-07-26T12:37:08;24.70;72.50
20963;DHT22;10640;50.140;8.138;2022-07-26T12:39:36;24.30;99.90
20963;DHT22;10640;50.140;8.138;2022-07-26T12:42:22;24.20;99.90
20963;DHT22;10640;50.140;8.138;2022-07-26T12:44:50;24.30;99.90
20963;DHT22;10640;50.140;8.138;2022-07-26T12:47:18;24.80;99.90
20963;DHT22;10640;50.140;8.138;2022-07-26T12:49:46;24.10;99.90
20963;DHT22;10640;50.140;8.138;2022-07-26T12:52:15;24.50;99.90
20963;DHT22;10640;50.140;8.138;2022-07-26T12:54:44;25.60;99.90
20963;DHT22;10640;50.140;8.138;2022-07-26T12:57:12;26.10;1.00
20963;DHT22;10640;50.140;8.138;2022-07-26T12:59:39;27.30;1.00
20963;DHT22;10640;50.140;8.138;2022-07-26T13:02:06;26.40;1.00
20963;DHT22;10640;50.140;8.138;2022-07-26T13:04:34;26.10;1.00
20963;DHT22;10640;50.140;8.138;2022-07-26T13:07:01;25.20;1.00
20963;DHT22;10640;50.140;8.138;2022-07-26T13:09:28;25.30;1.00
20963;DHT22;10640;50.140;8.138;2022-07-26T13:11:57;24.70;1.00
20963;DHT22;10640;50.140;8.138;2022-07-26T13:14:24;24.60;1.00
20963;DHT22;10640;50.140;8.138;2022-07-26T13:16:51;25.60;1.00
20963;DHT22;10640;50.140;8.138;2022-07-26T13:19:18;26.10;1.00
20963;DHT22;10640;50.140;8.138;2022-07-26T13:21:46;26.80;1.00
20963;DHT22;10640;50.140;8.138;2022-07-26T13:24:13;26.80;1.00
20963;DHT22;10640;50.140;8.138;2022-07-26T13:26:40;25.40;1.00
20963;DHT22;10640;50.140;8.138;2022-07-26T13:29:07;25.10;1.00
20963;DHT22;10640;50.140;8.138;2022-07-26T13:31:34;24.80;1.00
20963;DHT22;10640;50.140;8.138;2022-07-26T13:34:00;24.70;1.00
20963;DHT22;10640;50.140;8.138;2022-07-26T13:36:27;24.40;1.00
20963;DHT22;10640;50.140;8.138;2022-07-26T13:38:56;24.80;1.00
20963;DHT22;10640;50.140;8.138;2022-07-26T13:41:23;26.50;1.00
20963;DHT22;10640;50.140;8.138;2022-07-26T13:43:51;26.40;1.00
20963;DHT22;10640;50.140;8.138;2022-07-26T13:46:19;25.80;1.00
20963;DHT22;10640;50.140;8.138;2022-07-26T13:48:45;25.70;1.00
20963;DHT22;10640;50.140;8.138;2022-07-26T13:51:13;25.30;1.00
20963;DHT22;10640;50.140;8.138;2022-07-26T13:53:40;26.10;1.00
20963;DHT22;10640;50.140;8.138;2022-07-26T13:56:08;25.30;1.00
20963;DHT22;10640;50.140;8.138;2022-07-26T13:58:35;25.40;1.00
20963;DHT22;10640;50.140;8.138;2022-07-26T14:01:02;24.70;35.10
20963;DHT22;10640;50.140;8.138;2022-07-26T14:03:30;24.30;99.90
20963;DHT22;10640;50.140;8.138;2022-07-26T14:05:57;24.40;99.90
20963;DHT22;10640;50.140;8.138;2022-07-26T14:08:24;24.70;99.90
20963;DHT22;10640;50.140;8.138;2022-07-26T14:10:51;25.50;69.00
20963;DHT22;10640;50.140;8.138;2022-07-26T14:13:19;25.50;34.50
20963;DHT22;10640;50.140;8.138;2022-07-26T14:15:46;25.90;13.40
20963;DHT22;10640;50.140;8.138;2022-07-26T14:18:13;25.70;26.40
20963;DHT22;10640;50.140;8.138;2022-07-26T14:20:40;25.00;48.30
20963;DHT22;10640;50.140;8.138;2022-07-26T14:23:08;24.70;98.50
20963;DHT22;10640;50.140;8.138;2022-07-26T14:25:34;25.60;19.00
20963;DHT22;10640;50.140;8.138;2022-07-26T14:28:01;25.30;1.00
20963;DHT22;10640;50.140;8.138;2022-07-26T14:30:30;25.60;1.00
20963;DHT22;10640;50.140;8.138;2022-07-26T14:32:57;25.70;1.00
20963;DHT22;10640;50.140;8.138;2022-07-26T14:35:24;25.60;1.00
20963;DHT22;10640;50.140;8.138;2022-07-26T14:37:51;25.30;1.00
20963;DHT22;10640;50.140;8.138;2022-07-26T14:40:17;25.00;1.00
20963;DHT22;10640;50.140;8.138;2022-07-26T14:42:45;24.90;1.00
20963;DHT22;10640;50.140;8.138;2022-07-26T14:45:13;25.50;1.00
20963;DHT22;10640;50.140;8.138;2022-07-26T14:47:41;25.00;1.00
20963;DHT22;10640;50.140;8.138;2022-07-26T14:50:10;25.70;1.00
20963;DHT22;10640;50.140;8.138;2022-07-26T14:52:38;25.90;1.00
20963;DHT22;10640;50.140;8.138;2022-07-26T14:55:06;26.20;1.00
20963;DHT22;10640;50.140;8.138;2022-07-26T14:57:33;26.20;1.00
20963;DHT22;10640;50.140;8.138;2022-07-26T15:00:00;26.10;1.00
20963;DHT22;10640;50.140;8.138;2022-07-26T15:02:27;26.30;1.00
20963;DHT22;10640;50.140;8.138;2022-07-26T15:04:56;25.80;1.00
20963;DHT22;10640;50.140;8.138;2022-07-26T15:07:23;24.50;1.00
20963;DHT22;10640;50.140;8.138;2022-07-26T15:09:49;25.00;1.00
20963;DHT22;10640;50.140;8.138;2022-07-26T15:12:16;24.80;1.00
20963;DHT22;10640;50.140;8.138;2022-07-26T15:14:43;25.30;1.00
20963;DHT22;10640;50.140;8.138;2022-07-26T15:17:11;25.60;1.00
20963;DHT22;10640;50.140;8.138;2022-07-26T15:19:39;25.80;1.00
20963;DHT22;10640;50.140;8.138;2022-07-26T15:22:08;25.50;1.00
20963;DHT22;10640;50.140;8.138;2022-07-26T15:24:35;25.20;1.00
20963;DHT22;10640;50.140;8.138;2022-07-26T15:27:02;25.30;1.00
20963;DHT22;10640;50.140;8.138;2022-07-26T15:29:29;25.70;1.00
20963;DHT22;10640;50.140;8.138;2022-07-26T15:31:56;25.40;1.00
20963;DHT22;10640;50.140;8.138;2022-07-26T15:34:23;25.60;1.00
20963;DHT22;10640;50.140;8.138;2022-07-26T15:36:49;26.20;1.00
20963;DHT22;10640;50.140;8.138;2022-07-26T15:39:18;26.50;1.00
20963;DHT22;10640;50.140;8.138;2022-07-26T15:41:45;25.70;1.00
20963;DHT22;10640;50.140;8.138;2022-07-26T15:44:14;25.00;1.00
20963;DHT22;10640;50.140;8.138;2022-07-26T15:46:41;25.60;1.00
20963;DHT22;10640;50.140;8.138;2022-07-26T15:49:10;25.40;1.00
20963;DHT22;10640;50.140;8.138;2022-07-26T15:51:37;25.50;1.00
20963;DHT22;10640;50.140;8.138;2022-07-26T15:54:05;25.40;1.00